Dunster, Canada
Current Conditions -  °F | °C
As of 5:00 PM on Wednesday 22 Oct 2014 (Local Time) from CYWL Reporting Station
Broken Clouds Broken Clouds  
Wind Chill: 54°   Ceiling: 13000
Heat Index: 54°   Visibility: 15mi
Dew Point: 30°   Wind: 16mph
Humidity: 41%   Direction: 130°SE
Pressure: 29.5"   Gusts: 22mph
Location:  53.12°N, 119.83°W
Report Text: CYWL 230000Z 13014G19KT 15SM SCT050 SCT090 BKN130 12/M01 A2950 RMK CU4AC1AC2 AC TR SLP995 DENSITY ALT 3900FT
Loading
Personal Weather Stations






























Interactive Weather Map
Tropical Storm Tracking
New forecast layout! Learn more

10-Day Weather Forecast

Advertisements
Track Severe Weather on mobile